createdAt,value
2019-01-19T00:03:19.684Z,3.67
2019-01-19T00:06:54.492Z,2.40
2019-01-19T00:10:25.774Z,2.20
2019-01-19T00:13:37.781Z,2.30
2019-01-19T00:16:50.287Z,3.30
2019-01-19T00:20:22.064Z,3.77
2019-01-19T00:23:40.475Z,1.93
2019-01-19T00:27:19.744Z,2.23
2019-01-19T00:30:31.932Z,2.07
2019-01-19T00:33:53.274Z,2.60
2019-01-19T00:36:59.772Z,1.60
2019-01-19T00:40:14.860Z,3.53
2019-01-19T00:43:19.018Z,2.33
2019-01-19T00:46:57.120Z,2.43
2019-01-19T00:50:03.612Z,3.63
2019-01-19T00:53:15.628Z,1.77
2019-01-19T00:56:34.112Z,2.87
2019-01-19T00:59:37.702Z,2.80
2019-01-19T01:03:03.256Z,3.57
2019-01-19T01:06:24.438Z,4.63
2019-01-19T01:09:48.500Z,1.73
2019-01-19T01:13:09.472Z,1.57
2019-01-19T01:16:22.221Z,1.67
2019-01-19T01:19:37.716Z,1.60
2019-01-19T01:22:53.991Z,2.20
2019-01-19T01:26:23.032Z,1.93
2019-01-19T01:29:32.216Z,2.37
2019-01-19T01:32:41.256Z,2.57
2019-01-19T01:35:47.772Z,3.03
2019-01-19T01:38:54.258Z,3.03
2019-01-19T01:42:12.518Z,1.90
2019-01-19T01:45:27.988Z,3.70
2019-01-19T01:48:52.296Z,2.47
2019-01-19T01:52:13.681Z,1.67
2019-01-19T01:55:22.895Z,1.73
2019-01-19T01:58:29.389Z,2.07
2019-01-19T02:01:35.904Z,2.73
2019-01-19T02:04:59.876Z,4.17
2019-01-19T02:08:06.397Z,1.77
2019-01-19T02:11:27.916Z,1.43
2019-01-19T02:14:34.433Z,4.27
2019-01-19T02:17:43.756Z,1.57
2019-01-19T02:20:53.156Z,2.93
2019-01-19T02:24:32.711Z,3.17
2019-01-19T02:27:56.848Z,1.40
2019-01-19T02:31:27.298Z,1.40
2019-01-19T02:34:36.829Z,3.97
2019-01-19T02:37:49.216Z,1.20
2019-01-19T02:41:12.245Z,3.70
2019-01-19T02:44:30.644Z,2.13
2019-01-19T02:47:58.090Z,1.57
2019-01-19T02:51:10.350Z,2.20
2019-01-19T02:54:19.539Z,1.97
2019-01-19T02:57:32.097Z,7.33
2019-01-19T03:00:47.088Z,2.17
2019-01-19T03:04:02.405Z,2.73
2019-01-19T03:07:23.912Z,2.37
2019-01-19T03:10:36.277Z,1.60
2019-01-19T03:13:48.472Z,3.47
2019-01-19T03:17:14.288Z,5.23
2019-01-19T03:20:41.563Z,3.07
2019-01-19T03:23:56.933Z,2.70
2019-01-19T03:27:03.431Z,1.00
2019-01-19T03:30:12.842Z,2.03
2019-01-19T03:33:22.296Z,2.37
2019-01-19T03:36:46.500Z,3.93
2019-01-19T03:40:02.040Z,1.67
2019-01-19T03:43:11.414Z,3.70
2019-01-19T03:46:18.114Z,2.53
2019-01-19T03:49:33.097Z,4.53
2019-01-19T03:52:45.380Z,2.03
2019-01-19T03:55:57.732Z,2.37
2019-01-19T03:59:04.249Z,3.30
2019-01-19T04:02:16.321Z,2.83
2019-01-19T04:05:37.746Z,2.53
2019-01-19T04:09:00.320Z,3.33
2019-01-19T04:12:15.459Z,4.30
2019-01-19T04:15:48.764Z,3.80
2019-01-19T04:19:10.136Z,2.10
2019-01-19T04:22:16.635Z,4.20
2019-01-19T04:25:23.144Z,3.03
2019-01-19T04:28:26.624Z,1.77
2019-01-19T04:31:30.073Z,4.40
2019-01-19T04:34:33.653Z,2.77
2019-01-19T04:37:37.094Z,3.03
2019-01-19T04:40:40.504Z,2.00
2019-01-19T04:43:43.953Z,3.00
2019-01-19T04:46:47.396Z,2.97
2019-01-19T04:49:50.816Z,3.17
2019-01-19T04:52:54.243Z,3.43
2019-01-19T04:55:57.689Z,3.33
2019-01-19T04:59:01.131Z,4.00
2019-01-19T05:02:04.559Z,1.80
2019-01-19T05:05:08.149Z,4.50
2019-01-19T05:08:11.558Z,4.23
2019-01-19T05:11:14.980Z,4.17
2019-01-19T05:14:18.397Z,2.63
2019-01-19T05:17:21.841Z,3.17
2019-01-19T05:20:25.268Z,6.37
2019-01-19T05:23:28.886Z,2.70
2019-01-19T05:26:32.309Z,3.30
2019-01-19T05:29:35.724Z,2.13
2019-01-19T05:32:39.195Z,5.00
2019-01-19T05:35:42.685Z,7.83
2019-01-19T05:38:46.100Z,9.67
2019-01-19T05:41:49.540Z,8.07
2019-01-19T05:44:52.987Z,8.70
2019-01-19T05:47:56.497Z,4.00
2019-01-19T05:50:59.940Z,6.57
2019-01-19T05:54:03.438Z,3.67
2019-01-19T05:57:06.872Z,1.50
2019-01-19T06:00:16.016Z,3.13
2019-01-19T06:03:19.442Z,2.20
2019-01-19T06:06:23.151Z,3.13
2019-01-19T06:09:26.576Z,1.93
2019-01-19T06:12:30.038Z,3.63
2019-01-19T06:15:33.476Z,2.47
2019-01-19T06:18:37.364Z,4.20
2019-01-19T06:21:41.987Z,1.93
2019-01-19T06:24:45.430Z,3.87
2019-01-19T06:27:48.852Z,9.33
2019-01-19T06:30:52.295Z,3.97
2019-01-19T06:33:55.736Z,4.60
2019-01-19T06:36:59.221Z,3.60
2019-01-19T06:40:03.137Z,2.03
2019-01-19T06:43:06.550Z,3.77
2019-01-19T06:46:09.996Z,4.67
2019-01-19T06:49:13.428Z,2.03
2019-01-19T06:52:16.845Z,2.77
2019-01-19T06:55:25.740Z,3.00
2019-01-19T06:58:29.172Z,3.60
2019-01-19T07:01:32.633Z,2.60
2019-01-19T07:04:36.069Z,4.47
2019-01-19T07:07:39.500Z,3.50
2019-01-19T07:10:42.948Z,1.93
2019-01-19T07:13:46.384Z,2.13
2019-01-19T07:16:49.813Z,3.63
2019-01-19T07:19:53.250Z,3.90
2019-01-19T07:22:56.754Z,3.17
2019-01-19T07:26:00.212Z,3.57
2019-01-19T07:29:03.652Z,4.60
2019-01-19T07:32:07.089Z,3.83
2019-01-19T07:35:10.612Z,4.40
2019-01-19T07:38:14.036Z,2.63
2019-01-19T07:41:17.462Z,4.23
2019-01-19T07:44:20.898Z,5.30
2019-01-19T07:47:24.617Z,5.30
2019-01-19T07:50:28.049Z,2.43
2019-01-19T07:53:31.466Z,4.07
2019-01-19T07:56:34.918Z,3.90
2019-01-19T07:59:38.328Z,2.80
2019-01-19T08:02:41.764Z,3.37
2019-01-19T08:05:45.216Z,3.10
2019-01-19T08:08:48.631Z,3.30
2019-01-19T08:11:52.067Z,3.63
2019-01-19T08:14:55.493Z,4.83
2019-01-19T08:17:58.995Z,4.00
2019-01-19T08:21:02.425Z,3.80
2019-01-19T08:24:05.861Z,5.43
2019-01-19T08:27:09.263Z,3.23
2019-01-19T08:30:18.669Z,6.93
2019-01-19T08:33:22.101Z,4.47
2019-01-19T08:36:25.573Z,3.00
2019-01-19T08:39:29.008Z,3.97
2019-01-19T08:42:32.584Z,2.57
2019-01-19T08:45:36.017Z,3.20
2019-01-19T08:48:39.469Z,3.60
2019-01-19T08:51:42.869Z,4.40
2019-01-19T08:54:46.296Z,3.20
2019-01-19T08:57:49.716Z,5.57
2019-01-19T09:00:53.144Z,4.27
2019-01-19T09:03:56.554Z,2.37
2019-01-19T09:06:59.999Z,2.97
2019-01-19T09:10:03.869Z,2.07
2019-01-19T09:13:07.303Z,2.47
2019-01-19T09:16:10.707Z,3.87
2019-01-19T09:19:14.148Z,2.83
2019-01-19T09:22:17.582Z,3.80
2019-01-19T09:25:20.992Z,3.83
2019-01-19T09:28:24.400Z,2.80
2019-01-19T09:31:27.833Z,3.73
2019-01-19T09:34:33.954Z,2.53
2019-01-19T09:37:40.777Z,3.53
2019-01-19T09:40:41.540Z,2.93
2019-01-19T09:43:44.941Z,4.10
2019-01-19T09:46:48.368Z,2.90
2019-01-19T09:49:51.780Z,3.37
2019-01-19T09:52:55.199Z,3.87
2019-01-19T09:55:58.625Z,4.00
2019-01-19T09:59:02.054Z,3.63
2019-01-19T10:02:05.483Z,7.93
2019-01-19T10:05:17.393Z,5.70
2019-01-19T10:08:20.825Z,3.23
2019-01-19T10:11:24.251Z,3.80
2019-01-19T10:14:27.697Z,3.43
2019-01-19T10:17:31.104Z,2.70
2019-01-19T10:20:34.573Z,3.27
2019-01-19T10:23:37.980Z,3.57
2019-01-19T10:26:41.420Z,4.17
2019-01-19T10:29:44.859Z,2.53
2019-01-19T10:32:48.294Z,5.20
2019-01-19T10:35:51.707Z,3.00
2019-01-19T10:38:55.136Z,2.90
2019-01-19T10:41:58.548Z,1.80
2019-01-19T10:45:02.018Z,2.40
2019-01-19T10:48:05.701Z,5.30
2019-01-19T10:51:09.128Z,2.60
2019-01-19T10:54:12.558Z,2.23
2019-01-19T10:57:15.964Z,1.87
2019-01-19T11:00:27.044Z,2.43
2019-01-19T11:03:30.489Z,4.33
2019-01-19T11:06:33.900Z,2.97
2019-01-19T11:09:37.336Z,2.43
2019-01-19T11:12:40.736Z,1.90
2019-01-19T11:15:44.172Z,2.13
2019-01-19T11:18:47.578Z,3.20
2019-01-19T11:21:51.014Z,3.73
2019-01-19T11:24:54.433Z,4.23
2019-01-19T11:27:57.872Z,2.70
2019-01-19T11:31:01.286Z,2.70
2019-01-19T11:34:04.735Z,3.13
2019-01-19T11:37:08.140Z,2.50
2019-01-19T11:40:17.037Z,3.77
2019-01-19T11:43:20.454Z,3.97
2019-01-19T11:46:23.900Z,3.40
2019-01-19T11:49:27.308Z,4.13
2019-01-19T11:52:30.748Z,3.53
2019-01-19T11:55:34.156Z,2.37
2019-01-19T11:58:37.601Z,3.00
2019-01-19T12:01:41.004Z,2.17
2019-01-19T12:04:44.444Z,3.83
2019-01-19T12:07:47.996Z,5.00
2019-01-19T12:10:51.449Z,4.03
2019-01-19T12:13:54.856Z,2.87
2019-01-19T12:16:58.309Z,3.53
2019-01-19T12:20:01.733Z,3.47
2019-01-19T12:23:05.409Z,4.27
2019-01-19T12:26:08.809Z,4.93
2019-01-19T12:29:12.261Z,4.10
2019-01-19T12:32:15.678Z,5.20
2019-01-19T12:35:19.116Z,5.40
2019-01-19T12:38:26.749Z,3.87
2019-01-19T12:41:27.690Z,3.17
2019-01-19T12:44:31.088Z,3.33
2019-01-19T12:47:34.521Z,3.20
2019-01-19T12:50:38.004Z,4.67
2019-01-19T12:53:41.447Z,2.50
2019-01-19T12:56:44.942Z,2.90
2019-01-19T12:59:48.383Z,5.17
2019-01-19T13:02:51.865Z,3.47
2019-01-19T13:05:58.371Z,2.20
2019-01-19T13:09:01.780Z,2.93
2019-01-19T13:12:11.284Z,2.50
2019-01-19T13:15:38.577Z,3.03
2019-01-19T13:18:47.988Z,3.57
2019-01-19T13:22:26.085Z,4.03
2019-01-19T13:25:47.431Z,3.57
2019-01-19T13:29:19.488Z,3.97
2019-01-19T13:32:37.692Z,5.10
2019-01-19T13:36:01.745Z,4.40
2019-01-19T13:39:13.865Z,3.30
2019-01-19T13:42:38.143Z,5.37
2019-01-19T13:45:53.353Z,4.60
2019-01-19T13:48:59.868Z,5.77
2019-01-19T13:52:24.335Z,3.47
2019-01-19T13:55:48.240Z,4.87
2019-01-19T13:59:11.823Z,3.00
2019-01-19T14:02:37.644Z,3.70
2019-01-19T14:05:49.657Z,3.87
2019-01-19T14:09:23.021Z,2.73
2019-01-19T14:12:38.130Z,4.13
2019-01-19T14:15:55.702Z,3.93
2019-01-19T14:19:18.484Z,2.80
2019-01-19T14:22:30.822Z,3.87
2019-01-19T14:25:37.307Z,4.83
2019-01-19T14:29:01.669Z,4.73
2019-01-19T14:32:08.147Z,1.90
2019-01-19T14:35:35.246Z,4.47
2019-01-19T14:38:59.312Z,2.53
2019-01-19T14:42:11.379Z,2.20
2019-01-19T14:45:24.692Z,3.40
2019-01-19T14:48:48.493Z,2.77
2019-01-19T14:51:57.662Z,6.97
2019-01-19T14:55:06.784Z,4.20
2019-01-19T14:58:31.112Z,6.20
2019-01-19T15:01:40.248Z,4.27
2019-01-19T15:04:55.520Z,6.17
2019-01-19T15:08:19.143Z,4.63
2019-01-19T15:11:42.224Z,6.03
2019-01-19T15:14:51.509Z,6.80
2019-01-19T15:18:03.470Z,6.43
2019-01-19T15:21:33.666Z,6.63
2019-01-19T15:24:40.245Z,5.43
2019-01-19T15:27:49.657Z,7.67
2019-01-19T15:31:07.977Z,7.80
2019-01-19T15:34:35.151Z,7.93
2019-01-19T15:37:59.508Z,7.10
2019-01-19T15:41:20.388Z,6.70
2019-01-19T15:44:41.574Z,6.43
2019-01-19T15:48:04.405Z,6.60
2019-01-19T15:51:31.764Z,6.17
2019-01-19T15:54:40.945Z,7.57
2019-01-19T15:57:59.101Z,6.67
2019-01-19T16:01:11.128Z,8.60
2019-01-19T16:04:47.472Z,6.23
2019-01-19T16:07:59.792Z,6.77
2019-01-19T16:11:22.484Z,6.73
2019-01-19T16:14:31.463Z,5.70
2019-01-19T16:17:58.805Z,8.77
2019-01-19T16:21:10.355Z,7.07
2019-01-19T16:24:19.705Z,6.17
2019-01-19T16:27:37.869Z,4.87
2019-01-19T16:30:49.720Z,6.03
2019-01-19T16:34:12.462Z,5.37
2019-01-19T16:37:27.640Z,5.53
2019-01-19T16:40:46.148Z,6.73
2019-01-19T16:44:08.865Z,5.33
2019-01-19T16:47:30.236Z,4.40
2019-01-19T16:50:51.689Z,5.00
2019-01-19T16:54:01.301Z,5.27
2019-01-19T16:57:23.729Z,5.27
2019-01-19T17:00:39.176Z,9.27
2019-01-19T17:04:03.816Z,5.93
2019-01-19T17:07:22.020Z,6.47
2019-01-19T17:10:37.255Z,8.47
2019-01-19T17:13:46.765Z,6.20
2019-01-19T17:17:02.217Z,6.63
2019-01-19T17:20:23.428Z,7.13
2019-01-19T17:23:45.567Z,7.77
2019-01-19T17:27:00.819Z,7.67
2019-01-19T17:30:22.164Z,7.50
2019-01-19T17:33:36.738Z,9.80
2019-01-19T17:36:51.867Z,6.83
2019-01-19T17:40:25.382Z,8.87
2019-01-19T17:43:34.760Z,7.97
2019-01-19T17:46:52.967Z,7.97
2019-01-19T17:50:05.044Z,8.50
2019-01-19T17:53:26.252Z,9.17
2019-01-19T17:56:41.381Z,6.60
2019-01-19T17:59:54.120Z,9.00
2019-01-19T18:03:03.360Z,11.23
2019-01-19T18:06:21.545Z,6.97
2019-01-19T18:09:47.592Z,7.53
2019-01-19T18:12:56.938Z,6.47
2019-01-19T18:16:12.169Z,9.00
2019-01-19T18:19:29.792Z,10.60
2019-01-19T18:22:45.124Z,9.03
2019-01-19T18:25:51.620Z,10.20
2019-01-19T18:29:07.036Z,8.83
2019-01-19T18:32:29.825Z,9.47
2019-01-19T18:35:51.082Z,8.43
2019-01-19T18:39:09.616Z,13.63
2019-01-19T18:42:33.881Z,10.20
2019-01-19T18:45:43.364Z,9.13
2019-01-19T18:49:06.498Z,9.83
2019-01-19T18:52:15.502Z,11.53
2019-01-19T18:55:44.124Z,10.37
2019-01-19T18:59:08.533Z,9.77
2019-01-19T19:02:36.077Z,11.13
2019-01-19T19:05:48.204Z,11.27
2019-01-19T19:09:00.524Z,11.07
2019-01-19T19:12:12.572Z,9.83
2019-01-19T19:15:27.895Z,11.80
2019-01-19T19:18:39.961Z,11.30
2019-01-19T19:21:46.458Z,11.90
2019-01-19T19:24:52.968Z,11.60
2019-01-19T19:28:17.310Z,10.67
2019-01-19T19:31:29.492Z,12.93
2019-01-19T19:34:50.222Z,9.30
2019-01-19T19:37:59.412Z,11.20
2019-01-19T19:41:29.721Z,10.63
2019-01-19T19:45:10.638Z,10.47
2019-01-19T19:48:17.125Z,9.20
2019-01-19T19:51:32.381Z,9.33
2019-01-19T19:54:36.065Z,10.60
2019-01-19T19:57:39.493Z,13.17
2019-01-19T20:00:43.111Z,9.93
2019-01-19T20:03:46.528Z,9.73
2019-01-19T20:06:49.977Z,9.53
2019-01-19T20:09:54.336Z,14.03
2019-01-19T20:12:57.792Z,12.40
2019-01-19T20:16:02.151Z,12.80
2019-01-19T20:19:06.506Z,11.27
2019-01-19T20:22:10.065Z,12.03
2019-01-19T20:25:13.636Z,11.90
2019-01-19T20:28:17.081Z,12.53
2019-01-19T20:31:20.516Z,10.57
2019-01-19T20:34:23.976Z,14.80
2019-01-19T20:37:27.408Z,11.90
2019-01-19T20:40:30.868Z,10.40
2019-01-19T20:43:34.280Z,10.20
2019-01-19T20:46:37.742Z,10.93
2019-01-19T20:49:41.159Z,10.23
2019-01-19T20:52:44.600Z,11.60
2019-01-19T20:55:48.050Z,10.13
2019-01-19T20:58:51.489Z,13.03
2019-01-19T21:01:54.917Z,11.47
2019-01-19T21:04:58.351Z,11.93
2019-01-19T21:08:01.788Z,14.53
2019-01-19T21:11:05.213Z,13.70
2019-01-19T21:14:08.659Z,13.50
2019-01-19T21:17:12.097Z,14.30
2019-01-19T21:20:15.685Z,16.83
2019-01-19T21:23:19.127Z,15.33
2019-01-19T21:26:22.540Z,13.97
2019-01-19T21:29:25.976Z,14.03
2019-01-19T21:32:29.416Z,12.43
2019-01-19T21:35:32.857Z,14.43
2019-01-19T21:38:36.291Z,14.77
2019-01-19T21:41:39.801Z,19.70
2019-01-19T21:44:43.224Z,20.90
2019-01-19T21:47:46.681Z,15.93
2019-01-19T21:50:50.105Z,15.57
2019-01-19T21:53:53.544Z,15.47
2019-01-19T21:56:56.986Z,16.13
2019-01-19T22:00:00.404Z,17.53
2019-01-19T22:03:04.017Z,15.47
2019-01-19T22:06:07.449Z,17.20
2019-01-19T22:09:10.885Z,14.90
2019-01-19T22:12:14.316Z,18.53
2019-01-19T22:15:18.901Z,17.43
2019-01-19T22:18:22.396Z,16.80
2019-01-19T22:21:25.848Z,15.30
2019-01-19T22:24:29.278Z,17.20
2019-01-19T22:27:32.877Z,15.97
2019-01-19T22:30:36.324Z,15.57
2019-01-19T22:33:39.756Z,15.87
2019-01-19T22:36:43.174Z,17.70
2019-01-19T22:39:46.638Z,17.23
2019-01-19T22:42:50.716Z,17.70
2019-01-19T22:45:54.162Z,17.00
2019-01-19T22:48:57.611Z,17.63
2019-01-19T22:52:01.116Z,14.00
2019-01-19T22:55:05.771Z,14.93
2019-01-19T22:58:10.187Z,19.23
2019-01-19T23:01:27.892Z,18.20
2019-01-19T23:04:31.325Z,19.93
2019-01-19T23:07:34.763Z,17.77
2019-01-19T23:10:38.253Z,21.03
2019-01-19T23:13:41.709Z,17.33
2019-01-19T23:16:45.146Z,20.23
2019-01-19T23:19:48.596Z,17.10
2019-01-19T23:22:52.032Z,18.10
2019-01-19T23:25:55.960Z,17.00
2019-01-19T23:28:59.384Z,17.67
2019-01-19T23:32:02.845Z,15.53
2019-01-19T23:35:07.904Z,18.37
2019-01-19T23:38:11.449Z,19.53
2019-01-19T23:41:14.885Z,15.97
2019-01-19T23:44:18.350Z,18.57
2019-01-19T23:47:21.771Z,18.33
2019-01-19T23:50:25.228Z,14.63
2019-01-19T23:53:28.644Z,18.27
2019-01-19T23:56:32.182Z,18.33
2019-01-19T23:59:35.602Z,15.07
